South Kearny, New Jersey
Current Conditions -  °F | °C
As of 9:51 AM on Thursday 30 Oct 2014 (Local Time) from KEWR Reporting Station
Scattered Clouds Scattered Clouds  
Wind Chill: 54°   Ceiling: Unl
Heat Index: 54°   Visibility: 10mi
Dew Point: 41°   Wind: 10mph
Humidity: 62%   Direction: 320°NW
Pressure: 30.01"   Gusts: NA
Location:  40.7563°N, 74.1217°W
Report Text: KEWR 301351Z 32009KT 10SM FEW065 SCT250 12/05 A3001 RMK AO2 SLP160 T01220050
Loading
Personal Weather Stations






























Interactive Weather Map New forecast layout! Learn more

10-Day Weather Forecast

Advertisements
Track Severe Weather on mobile